Data for 02/23/2009

Time Sea-Level Adjusted Pressure Absolute Pressure Temperature Relative Humidity Dew Point   
(mb) (inHg) (mb) (inHg) (C) (F) (%) (C) (F)
00:05 1017 30.03 846 24.98 7.2 45 41 -5.2 22.6
00:10 1016 30 846 24.98 7.2 45 41 -5.3 22.4
00:15 1016 30 846 24.98 7.2 45 39 -5.7 21.8
00:20 1016 30 846 24.98 7.3 45.1 39 -5.8 21.6
00:25 1016 30 846 24.98 7.2 45 39 -5.7 21.7
00:30 1016 30 845 24.95 7.1 44.8 39 -5.8 21.6
00:35 1016 30 845 24.95 7.2 45 39 -5.8 21.5
00:40 1016 30 845 24.95 7.1 44.7 40 -5.6 21.9
00:45 1016 30 845 24.95 6.9 44.5 41 -5.4 22.3
00:50 1016 30 845 24.95 6.7 44 45 -4.5 23.9
00:55 1016 30 845 24.95 5.7 42.3 47 -4.8 23.4
01:00 1016 30 845 24.95 5.5 42 46 -5.1 22.8
01:05 1016 30 846 24.98 5.4 41.7 47 -5.1 22.8
01:10 1017 30.03 846 24.98 5.2 41.4 47 -5.1 22.7
01:15 1017 30.03 846 24.98 5.1 41.2 47 -5.2 22.7
01:20 1017 30.03 846 24.98 5 41.1 48 -5.2 22.7
01:25 1017 30.03 846 24.98 5 41 48 -5.2 22.6
01:30 1017 30.03 846 24.98 5.3 41.5 46 -5.3 22.5
01:35 1017 30.03 846 24.98 5.3 41.5 46 -5.4 22.2
01:40 1017 30.03 846 24.98 5.2 41.4 46 -5.5 22
01:45 1017 30.03 846 24.98 5.6 42.1 44 -5.6 22
01:50 1017 30.03 846 24.98 5.4 41.7 46 -5.4 22.3
01:55 1017 30.03 846 24.98 5.2 41.3 45 -5.8 21.5
02:00 1017 30.03 846 24.98 5.6 42 45 -5.5 22
02:05 1017 30.03 846 24.98 5.9 42.5 45 -5.3 22.4
02:10 1017 30.03 846 24.98 5.7 42.2 44 -5.6 21.9
02:15 1017 30.03 846 24.98 5.1 41.1 48 -5.1 22.9
02:20 1017 30.03 846 24.98 4.2 39.6 52 -4.7 23.6
02:25 1017 30.03 846 24.98 3.7 38.7 52 -5.3 22.5
02:30 1017 30.03 846 24.98 3.5 38.3 54 -5 22.9
02:35 1017 30.03 846 24.98 3.9 38.9 53 -4.8 23.3
02:40 1017 30.03 846 24.98 3.7 38.7 53 -4.9 23.1
02:45 1017 30.03 846 24.98 3.6 38.5 53 -5.2 22.6
02:50 1017 30.03 846 24.98 3.8 38.9 49 -5.9 21.4
02:55 1017 30.03 846 24.98 4.1 39.4 48 -5.8 21.5
03:00 1017 30.03 846 24.98 4 39.2 50 -5.6 21.9
03:05 1017 30.03 846 24.98 3.7 38.7 50 -5.7 21.7
03:10 1017 30.03 846 24.98 3.8 38.8 49 -6 21.3
03:15 1016 30 846 24.98 4.2 39.6 48 -5.8 21.6
03:20 1016 30 846 24.98 4.2 39.5 48 -5.8 21.6
03:25 1016 30 845 24.95 4.3 39.7 48 -5.7 21.7
03:30 1016 30 846 24.98 4.3 39.8 48 -5.7 21.7
03:35 1016 30 845 24.95 4.4 39.9 48 -5.7 21.7
03:40 1016 30 845 24.95 4.3 39.8 48 -5.7 21.7
03:45 1016 30 845 24.95 4.3 39.8 49 -5.4 22.2
03:50 1016 30 845 24.95 4.3 39.7 49 -5.6 21.9
03:55 1016 30 845 24.95 4.3 39.8 49 -5.3 22.4
04:00 1016 30 845 24.95 4.2 39.6 50 -5.2 22.6
04:05 1016 30 845 24.95 4.2 39.6 51 -4.9 23.2
04:10 1016 30 845 24.95 4 39.2 54 -4.6 23.7
04:15 1016 30 845 24.95 3.8 38.9 54 -4.6 23.7
04:20 1016 30 845 24.95 3.7 38.7 53 -4.9 23.1
04:25 1016 30 845 24.95 3.9 39.1 52 -5 23.1
04:30 1016 30 846 24.98 4 39.3 52 -5 23.1
04:35 1016 30 845 24.95 4.1 39.3 51 -5.1 22.9
04:40 1016 30 845 24.95 4.1 39.4 52 -4.9 23.2
04:45 1016 30 845 24.95 4.1 39.3 52 -4.9 23.3
04:50 1016 30 845 24.95 4.1 39.4 52 -4.9 23.2
04:55 1016 30 845 24.95 4.4 39.9 51 -5 23.1
05:00 1016 30 845 24.95 4.5 40.2 51 -4.8 23.3
05:05 1016 30 845 24.95 4.6 40.3 50 -4.9 23.2
05:10 1016 30 845 24.95 4.7 40.4 50 -4.9 23.1
05:15 1016 30 846 24.98 5 41 49 -4.9 23.1
05:20 1016 30 846 24.98 5 41.1 49 -4.7 23.6
05:25 1016 30 846 24.98 5 41 49 -4.8 23.4
05:30 1016 30 846 24.98 4.8 40.6 51 -4.5 23.9
05:35 1016 30 846 24.98 4.3 39.8 54 -4.2 24.5
05:40 1016 30 846 24.98 4.1 39.4 53 -4.7 23.5
05:45 1016 30 846 24.98 4.2 39.6 53 -4.5 23.8
05:50 1016 30 846 24.98 4.3 39.7 55 -4 24.8
05:55 1016 30 846 24.98 4.3 39.8 54 -4.2 24.5
06:00 1016 30 846 24.98 4.3 39.8 55 -3.9 24.9
06:05 1016 30 846 24.98 4.3 39.7 54 -4.2 24.5
06:10 1016 30 846 24.98 4.3 39.8 55 -4 24.8
06:15 1016 30 846 24.98 4.6 40.2 53 -4.1 24.6
06:20 1017 30.03 846 24.98 4.6 40.3 54 -4 24.8
06:25 1016 30 846 24.98 4.6 40.2 54 -3.9 25.1
06:30 1016 30 846 24.98 4.6 40.3 55 -3.6 25.5
06:35 1016 30 846 24.98 4.6 40.4 56 -3.3 26.1
06:40 1016 30 846 24.98 4.4 40 56 -3.6 25.6
06:45 1016 30 846 24.98 4.5 40.1 56 -3.5 25.7
06:50 1016 30 846 24.98 4.4 39.9 58 -3.2 26.3
06:55 1016 30 846 24.98 4.2 39.6 59 -3 26.7
07:00 1016 30 846 24.98 4.1 39.4 60 -2.9 26.7
07:05 1016 30 846 24.98 4.2 39.6 60 -3 26.7
07:10 1016 30 846 24.98 4.2 39.6 60 -2.7 27.1
07:15 1016 30 845 24.95 4.2 39.5 60 -2.8 26.9
07:20 1016 30 845 24.95 4.2 39.5 61 -2.7 27.1
07:25 1016 30 845 24.95 4.2 39.5 62 -2.4 27.6
07:30 1016 30 845 24.95 4.3 39.7 62 -2.4 27.8
07:35 1016 30 845 24.95 4.4 39.9 62 -2.4 27.8
07:40 1016 30 845 24.95 4.5 40.1 61 -2.3 27.9
07:45 1016 30 845 24.95 4.5 40.1 62 -2.2 28
07:50 1016 30 845 24.95 4.6 40.2 62 -2.1 28.1
07:55 1016 30 845 24.95 4.6 40.3 62 -2 28.5
08:00 1016 30 845 24.95 4.4 39.9 64 -1.9 28.6
08:05 1016 30 845 24.95 4.3 39.8 64 -1.8 28.8
08:10 1016 30 845 24.95 4.2 39.5 66 -1.7 29
08:15 1016 30 845 24.95 4.2 39.6 65 -1.7 28.9
08:20 1016 30 846 24.98 4.3 39.8 65 -1.6 29.1
08:25 1016 30 846 24.98 4.4 39.9 65 -1.7 29
08:30 1016 30 846 24.98 4.3 39.7 66 -1.6 29.2
08:35 1016 30 846 24.98 4.4 39.9 63 -2 28.3
08:40 1016 30 845 24.95 4.5 40 63 -1.9 28.6
08:45 1016 30 846 24.98 4.5 40.1 62 -2.1 28.2
08:50 1016 30 845 24.95 4.6 40.3 62 -2.1 28.3
08:55 1016 30 845 24.95 4.6 40.3 63 -1.8 28.8
09:00 1016 30 846 24.98 4.6 40.3 62 -2.1 28.3
09:05 1016 30 846 24.98 4.7 40.5 59 -2.5 27.4
09:10 1016 30 846 24.98 4.9 40.8 58 -2.6 27.3
09:15 1016 30 846 24.98 5.2 41.3 59 -2.3 27.9
09:20 1016 30 846 24.98 5.3 41.5 57 -2.5 27.5
09:25 1017 30.03 846 24.98 5.4 41.8 57 -2.4 27.6
09:30 1017 30.03 846 24.98 5.8 42.4 56 -2.4 27.6
09:35 1017 30.03 846 24.98 5.9 42.7 54 -2.6 27.3
09:40 1017 30.03 846 24.98 5.9 42.6 54 -2.8 27
09:45 1017 30.03 846 24.98 6.1 43 53 -2.8 27
09:50 1017 30.03 846 24.98 6.4 43.5 52 -2.7 27.1
09:55 1017 30.03 846 24.98 6.6 43.9 52 -2.6 27.2
10:00 1017 30.03 846 24.98 6.9 44.4 50 -2.7 27.1
10:05 1017 30.03 846 24.98 7.1 44.8 49 -2.8 26.9
10:10 1017 30.03 846 24.98 7.8 46.1 46 -2.9 26.7
10:15 1017 30.03 846 24.98 8.8 47.8 43 -3 26.6
10:20 1017 30.03 846 24.98 8.9 48 43 -2.9 26.8
10:25 1017 30.03 846 24.98 9.4 48.9 42 -2.7 27.1
10:30 1017 30.03 846 24.98 9.9 49.8 40 -3 26.7
10:35 1017 30.03 846 24.98 10 50 40 -3.1 26.5
10:40 1017 30.03 846 24.98 9.7 49.4 39 -3.6 25.6
10:45 1016 30 846 24.98 10.2 50.3 39 -3.2 26.3
10:50 1016 30 846 24.98 10.8 51.5 37 -3.1 26.5
10:55 1016 30 846 24.98 10.8 51.5 38 -3 26.7
11:00 1017 30.03 846 24.98 10.5 50.8 40 -2.6 27.4
11:05 1016 30 846 24.98 10.8 51.5 38 -2.8 27
11:10 1016 30 846 24.98 11.1 52 37 -2.9 26.8
11:15 1016 30 846 24.98 11.3 52.4 38 -2.4 27.8
11:20 1016 30 846 24.98 10.1 50.2 41 -2.4 27.7
11:25 1016 30 846 24.98 10.4 50.7 40 -2.7 27.1
11:30 1016 30 846 24.98 10.7 51.3 36 -3.8 25.1
11:35 1016 30 845 24.95 11.1 52 36 -3.5 25.6
11:40 1016 30 845 24.95 11 51.9 36 -3.5 25.6
11:45 1016 30 845 24.95 11 51.9 36 -3.5 25.7
11:50 1016 30 845 24.95 10.9 51.6 35 -3.9 24.9
11:55 1016 30 845 24.95 11 51.8 34 -4.3 24.2
12:00 1016 30 845 24.95 10.7 51.3 35 -4.1 24.6
12:05 1016 30 845 24.95 10.5 50.9 35 -4.1 24.6
12:10 1016 30 845 24.95 10.5 51 37 -3.6 25.5
12:15 1016 30 845 24.95 10.3 50.5 37 -3.8 25.1
12:20 1016 30 845 24.95 10.5 50.8 37 -3.5 25.8
12:25 1016 30 845 24.95 10.9 51.7 36 -3.5 25.6
12:30 1016 30 845 24.95 10.8 51.4 36 -3.7 25.3
12:35 1016 30 845 24.95 11.1 51.9 34 -4.1 24.7
12:40 1016 30 845 24.95 11.5 52.7 34 -3.9 25.1
12:45 1015 29.97 845 24.95 11.6 52.8 33 -4 24.8
12:50 1015 29.97 845 24.95 11.9 53.4 33 -3.9 25.1
12:55 1015 29.97 845 24.95 12 53.5 33 -3.8 25.1
13:00 1015 29.97 845 24.95 11.9 53.4 33 -4 24.8
13:05 1015 29.97 845 24.95 12 53.6 32 -3.9 24.9
13:10 1015 29.97 845 24.95 12.2 54 32 -4.1 24.5
13:15 1015 29.97 844 24.92 12.1 53.8 32 -4.2 24.4
13:20 1015 29.97 844 24.92 12.1 53.8 32 -4.2 24.5
13:25 1015 29.97 844 24.92 12.2 53.9 32 -4.2 24.5
13:30 1015 29.97 844 24.92 12.2 54 32 -4.2 24.5
13:35 1015 29.97 844 24.92 12.8 55.1 31 -4 24.8
13:40 1015 29.97 844 24.92 13 55.5 29 -4.4 24.1
13:45 1015 29.97 844 24.92 12.6 54.7 29 -4.9 23.1
13:50 1015 29.97 844 24.92 12.6 54.7 29 -5 22.9
13:55 1015 29.97 844 24.92 12.2 54 30 -4.7 23.6
14:00 1015 29.97 844 24.92 11.8 53.3 31 -4.6 23.6
14:05 1015 29.97 844 24.92 11.7 53 31 -4.7 23.6
14:10 1015 29.97 844 24.92 11.7 53.1 30 -5 22.9
14:15 1015 29.97 844 24.92 11.6 52.9 30 -5.3 22.4
14:20 1015 29.97 844 24.92 11.6 52.9 30 -5.5 22.1
14:25 1015 29.97 844 24.92 11.5 52.6 31 -5 23
14:30 1014 29.94 844 24.92 11.4 52.4 31 -5.1 22.8
14:35 1014 29.94 844 24.92 11.3 52.4 32 -4.8 23.3
14:40 1014 29.94 844 24.92 11.3 52.3 32 -4.9 23.1
14:45 1014 29.94 844 24.92 11.4 52.6 31 -5.2 22.7
14:50 1014 29.94 844 24.92 11.6 52.9 30 -5.2 22.6
14:55 1014 29.94 843 24.89 11.7 53.1 29 -5.7 21.7
15:00 1014 29.94 843 24.89 12.5 54.4 30 -4.4 24
15:05 1014 29.94 843 24.89 12.4 54.3 30 -4.4 24
15:10 1014 29.94 843 24.89 12.1 53.7 30 -4.9 23.3
15:15 1014 29.94 843 24.89 12 53.5 30 -4.9 23.3
15:20 1014 29.94 843 24.89 12.1 53.9 30 -5 23.1
15:25 1014 29.94 843 24.89 12.5 54.4 28 -5.5 22
15:30 1014 29.94 843 24.89 12.6 54.7 28 -5.4 22.3
15:35 1014 29.94 843 24.89 12.9 55.2 29 -4.5 24
15:40 1014 29.94 843 24.89 12.5 54.6 29 -5.1 22.8
15:45 1014 29.94 843 24.89 12.3 54.1 29 -5.3 22.4
15:50 1014 29.94 843 24.89 12.5 54.4 28 -5.5 22.1
15:55 1014 29.94 843 24.89 12.7 54.9 27 -5.6 21.9
16:00 1014 29.94 843 24.89 12.6 54.7 28 -5.3 22.4
16:05 1014 29.94 843 24.89 12.3 54.2 28 -5.7 21.7
16:10 1014 29.94 843 24.89 12.4 54.4 28 -5.4 22.2
16:15 1014 29.94 843 24.89 12.4 54.3 28 -5.8 21.6
16:20 1014 29.94 843 24.89 12.4 54.4 28 -5.5 22.1
16:25 1014 29.94 843 24.89 12.2 54 29 -5.1 22.7
16:30 1014 29.94 843 24.89 11.7 53 31 -4.9 23.2
16:35 1014 29.94 843 24.89 11.1 52 32 -5 23
16:40 1013 29.91 843 24.89 10.9 51.7 31 -5.6 21.9
16:45 1013 29.91 843 24.89 11.3 52.3 29 -6.2 20.8
16:50 1013 29.91 843 24.89 12 53.6 28 -5.9 21.4
16:55 1013 29.91 843 24.89 12.2 54 28 -5.6 21.9
17:00 1013 29.91 843 24.89 11.8 53.2 29 -5.4 22.2
17:05 1013 29.91 842 24.86 11.1 52 30 -5.7 21.8
17:10 1013 29.91 842 24.86 10.9 51.6 30 -6 21.2
17:15 1013 29.91 842 24.86 11.1 51.9 30 -5.6 21.9
17:20 1013 29.91 842 24.86 10.8 51.4 31 -5.4 22.2
17:25 1013 29.91 842 24.86 10.5 51 32 -5.7 21.8
17:30 1013 29.91 842 24.86 10.4 50.8 33 -5.2 22.6
17:35 1013 29.91 842 24.86 10.2 50.3 36 -4.1 24.7
17:40 1013 29.91 842 24.86 9.5 49 36 -4.7 23.6
17:45 1013 29.91 842 24.86 9.1 48.4 42 -3 26.6
17:50 1013 29.91 842 24.86 8.9 47.9 40 -4.1 24.5
17:55 1013 29.91 842 24.86 9 48.1 41 -3.7 25.4
18:00 1013 29.91 842 24.86 8.9 48 40 -4.1 24.6
18:05 1013 29.91 842 24.86 9 48.2 41 -3.6 25.6
18:10 1013 29.91 842 24.86 8.8 47.8 42 -3.5 25.6
18:15 1013 29.91 842 24.86 8.6 47.5 42 -3.6 25.5
18:20 1013 29.91 842 24.86 8.5 47.4 37 -5.2 22.7
18:25 1013 29.91 842 24.86 9.3 48.7 38 -4.3 24.2
18:30 1013 29.91 842 24.86 9.1 48.3 40 -3.6 25.5
18:35 1013 29.91 842 24.86 8.4 47.1 41 -4.2 24.5
18:40 1013 29.91 842 24.86 8.4 47.1 42 -3.8 25.1
18:45 1013 29.91 842 24.86 8.3 46.9 42 -3.8 25.1
18:50 1013 29.91 842 24.86 8 46.4 45 -3.3 26.1
18:55 1013 29.91 842 24.86 7.6 45.6 46 -3.2 26.3
19:00 1013 29.91 842 24.86 7.2 44.9 46 -3.8 25.2
19:05 1013 29.91 842 24.86 7.2 44.9 47 -3.4 25.8
19:10 1013 29.91 842 24.86 7 44.6 46 -3.8 25.1
19:15 1013 29.91 842 24.86 7.3 45.1 45 -4 24.8
19:20 1013 29.91 842 24.86 7.6 45.7 43 -4.3 24.3
19:25 1013 29.91 842 24.86 7.8 46 45 -3.4 25.9
19:30 1013 29.91 842 24.86 7.5 45.5 44 -4 24.9
19:35 1013 29.91 842 24.86 7.3 45.1 47 -3.3 26
19:40 1013 29.91 842 24.86 7.1 44.8 46 -3.6 25.6
19:45 1013 29.91 842 24.86 7.3 45.2 46 -3.7 25.4
19:50 1013 29.91 842 24.86 7.2 45 47 -3.4 25.9
19:55 1013 29.91 842 24.86 7.1 44.8 48 -3.2 26.2
20:00 1013 29.91 842 24.86 7 44.6 46 -3.8 25.2
20:05 1013 29.91 842 24.86 7.2 44.9 47 -3.4 25.8
20:10 1013 29.91 842 24.86 6.9 44.4 47 -3.6 25.5
20:15 1013 29.91 842 24.86 6.7 44.1 47 -3.9 25
20:20 1013 29.91 842 24.86 7 44.6 46 -3.8 25.2
20:25 1013 29.91 842 24.86 7 44.6 45 -4 24.8
20:30 1013 29.91 842 24.86 7.1 44.8 45 -3.9 25
20:35 1013 29.91 842 24.86 7.2 44.9 45 -4 24.7
20:40 1013 29.91 842 24.86 7.1 44.8 45 -4 24.8
20:45 1013 29.91 842 24.86 7 44.7 45 -4.1 24.6
20:50 1013 29.91 842 24.86 7.2 45 44 -4.2 24.5
20:55 1013 29.91 842 24.86 7.3 45.1 44 -4.2 24.4
21:00 1013 29.91 842 24.86 7.2 44.9 43 -4.6 23.7
21:05 1013 29.91 842 24.86 7.4 45.3 42 -4.6 23.7
21:10 1013 29.91 842 24.86 7.3 45.1 42 -4.7 23.5
21:15 1013 29.91 842 24.86 7.3 45.1 43 -4.5 23.9
21:20 1013 29.91 842 24.86 7.2 44.9 44 -4.2 24.4
21:25 1012 29.88 842 24.86 7.2 45 45 -3.8 25.2
21:30 1012 29.88 842 24.86 7.3 45.1 45 -4 24.9
21:35 1012 29.88 842 24.86 7.4 45.4 44 -4.1 24.7
21:40 1012 29.88 841 24.83 7.6 45.7 42 -4.4 24.1
21:45 1012 29.88 842 24.86 7.3 45.2 45 -3.8 25.1
21:50 1012 29.88 842 24.86 7.5 45.6 41 -4.8 23.4
21:55 1012 29.88 842 24.86 7.3 45.2 45 -3.7 25.4
22:00 1013 29.91 842 24.86 7.5 45.5 41 -4.9 23.2
22:05 1013 29.91 842 24.86 7.8 46 40 -4.8 23.3
22:10 1013 29.91 842 24.86 8.2 46.7 38 -5.4 22.2
22:15 1013 29.91 842 24.86 8.1 46.6 42 -4 24.7
22:20 1013 29.91 842 24.86 7.7 45.9 42 -4.5 24
22:25 1013 29.91 842 24.86 7.7 45.9 43 -4 24.8
22:30 1013 29.91 842 24.86 7.3 45.2 45 -3.8 25.2
22:35 1013 29.91 842 24.86 7.2 44.9 44 -4.3 24.2
22:40 1013 29.91 842 24.86 7.6 45.6 43 -4.3 24.3
22:45 1013 29.91 842 24.86 7.8 46 42 -4.2 24.5
22:50 1013 29.91 842 24.86 7.7 45.9 43 -4.2 24.5
22:55 1013 29.91 842 24.86 7.6 45.7 44 -3.8 25.1
23:00 1013 29.91 842 24.86 7.3 45.1 46 -3.5 25.7
23:05 1012 29.88 842 24.86 7 44.7 45 -4.1 24.6
23:10 1012 29.88 841 24.83 6.9 44.4 47 -3.7 25.3
23:15 1012 29.88 841 24.83 6.4 43.5 46 -4.4 24
23:20 1012 29.88 841 24.83 6.5 43.8 44 -4.8 23.4
23:25 1012 29.88 841 24.83 7.2 44.9 39 -5.7 21.7
23:30 1012 29.88 841 24.83 7.8 46.1 38 -5.4 22.2
23:35 1012 29.88 841 24.83 7.9 46.2 38 -5.5 22.1
23:40 1012 29.88 841 24.83 8 46.4 37 -5.6 21.8
23:45 1012 29.88 841 24.83 8.2 46.7 37 -5.8 21.6
23:50 1012 29.88 841 24.83 8.5 47.3 35 -5.9 21.3
23:55 1012 29.88 841 24.83 8.6 47.5 36 -5.6 21.9
24:00 1012 29.88 841 24.83 8.5 47.3 35 -5.9 21.4